Time;durP1;ratioP1;P1;durP2;ratioP2;P2;SDS_P1;SDS_P2;PMS_P1;PMS_P2;Temp;Humidity;BMP_temperature;BMP_pressure;BME280_temperature;BME280_humidity;BME280_pressure;Samples;Min_cycle;Max_cycle;Signal;HPM_P1;HPM_P2
2022/08/04 00:00:05;;;;;;;8.75;5.50;;;19.00;99.00;;;;;;5059141;28;20035;-80
2022/08/04 00:02:56;;;;;;;9.68;5.55;;;19.00;99.00;;;;;;5059192;28;20122;-79
2022/08/04 00:05:51;;;;;;;10.25;6.10;;;19.00;99.00;;;;;;5060227;28;20012;-79
2022/08/04 00:08:33;;;;;;;9.70;6.00;;;19.00;99.00;;;;;;5059960;28;20033;-79
2022/08/04 00:11:01;;;;;;;11.70;5.88;;;18.80;99.10;;;;;;5059895;28;20044;-80
2022/08/04 00:13:33;;;;;;;11.45;6.07;;;18.80;99.30;;;;;;5059634;28;20445;-80
2022/08/04 00:16:04;;;;;;;11.00;6.03;;;18.80;99.50;;;;;;5059211;28;20538;-80
2022/08/04 00:18:54;;;;;;;12.75;6.15;;;18.70;99.60;;;;;;5058119;28;20028;-80
2022/08/04 00:21:23;;;;;;;8.70;5.00;;;18.70;99.60;;;;;;5059328;28;20087;-81
2022/08/04 00:23:51;;;;;;;10.25;5.50;;;18.80;99.50;;;;;;5059363;28;20017;-81
2022/08/04 00:26:17;;;;;;;9.25;5.65;;;18.70;99.60;;;;;;5059136;28;20068;-80
2022/08/04 00:28:43;;;;;;;8.02;5.20;;;18.70;99.60;;;;;;5059396;28;20056;-82
2022/08/04 00:31:10;;;;;;;9.70;5.88;;;16.40;99.20;;;;;;5059267;28;20023;-81
2022/08/04 00:33:42;;;;;;;10.00;5.60;;;18.60;99.60;;;;;;5059511;28;20028;-80
2022/08/04 00:36:11;;;;;;;9.20;5.43;;;18.60;99.80;;;;;;5059167;28;20019;-80
2022/08/04 00:38:42;;;;;;;11.23;5.97;;;18.60;99.90;;;;;;5059092;28;20032;-80
2022/08/04 00:41:33;;;;;;;8.40;4.68;;;18.60;99.90;;;;;;5057537;28;20039;-80
2022/08/04 00:44:02;;;;;;;11.32;6.05;;;18.60;99.90;;;;;;5057894;28;20134;-80
2022/08/04 00:46:58;;;;;;;11.93;5.93;;;18.50;99.90;;;;;;5057224;28;20044;-81
2022/08/04 00:49:42;;;;;;;12.25;5.90;;;18.50;99.90;;;;;;5059099;28;20013;-79
2022/08/04 00:52:23;;;;;;;8.82;5.25;;;18.50;99.90;;;;;;5057610;28;20032;-83
2022/08/04 00:54:58;;;;;;;10.73;5.30;;;18.40;99.90;;;;;;5058837;28;20391;-78
2022/08/04 00:57:35;;;;;;;11.20;5.80;;;18.40;99.90;;;;;;5059010;28;20527;-82
2022/08/04 01:00:10;;;;;;;10.52;5.78;;;18.30;99.90;;;;;;5058710;28;20060;-83
2022/08/04 01:02:51;;;;;;;9.48;5.97;;;18.30;99.90;;;;;;5058557;28;20313;-83
2022/08/04 01:05:28;;;;;;;8.73;5.38;;;18.30;99.90;;;;;;5057065;28;20475;-83
2022/08/04 01:07:58;;;;;;;10.60;5.72;;;18.20;99.90;;;;;;5058458;28;20573;-81
2022/08/04 01:10:40;;;;;;;9.20;5.47;;;18.10;99.90;;;;;;5058300;28;20027;-82
2022/08/04 01:13:39;;;;;;;9.80;5.88;;;18.10;99.90;;;;;;5058517;28;20085;-81
2022/08/04 01:16:10;;;;;;;9.25;5.82;;;18.10;99.90;;;;;;5058135;28;20479;-81
2022/08/04 01:18:57;;;;;;;9.88;5.90;;;17.90;99.90;;;;;;5056853;28;20036;-84
2022/08/04 01:21:29;;;;;;;8.73;5.15;;;17.90;99.90;;;;;;5056673;28;20029;-79
2022/08/04 01:24:10;;;;;;;9.00;4.90;;;17.80;99.90;;;;;;5058123;28;20024;-83
2022/08/04 01:27:03;;;;;;;9.63;5.35;;;17.80;99.90;;;;;;5056901;28;20040;-82
2022/08/04 01:29:47;;;;;;;11.85;5.28;;;17.60;99.90;;;;;;5058298;28;20107;-79
2022/08/04 01:32:26;;;;;;;;;;;17.70;99.90;;;;;;5058292;28;20577;-85
2022/08/04 01:35:10;;;;;;;8.90;5.15;;;17.60;99.90;;;;;;5058101;28;19904;-84
2022/08/04 01:37:48;;;;;;;9.30;5.47;;;20.50;99.90;;;;;;5056632;28;20362;-82
2022/08/04 01:40:15;;;;;;;10.25;5.28;;;17.60;99.90;;;;;;5057878;28;20173;-82
2022/08/04 01:42:51;;;;;;;8.85;5.20;;;17.60;99.90;;;;;;5058110;28;20046;-82
2022/08/04 01:45:17;;;;;;;10.45;5.68;;;17.60;99.90;;;;;;5057851;28;20382;-82
2022/08/04 01:47:50;;;;;;;10.00;6.13;;;17.60;99.90;;;;;;5057630;28;20590;-81
2022/08/04 01:50:16;;;;;;;13.32;5.57;;;17.50;99.90;;;;;;5057876;28;20119;-79
2022/08/04 01:52:43;;;;;;;9.25;5.45;;;14.80;99.90;;;;;;5057786;28;20059;-82
2022/08/04 01:55:11;;;;;;;10.15;6.13;;;17.50;99.90;;;;;;5057564;28;20024;-82
2022/08/04 01:57:47;;;;;;;10.20;5.25;;;17.50;99.90;;;;;;5056238;28;20056;-83
2022/08/04 02:00:26;;;;;;;9.77;5.03;;;17.50;99.90;;;;;;5057856;28;20021;-82
2022/08/04 02:02:55;;;;;;;8.38;5.20;;;17.50;99.90;;;;;;5057760;28;20024;-82
2022/08/04 02:05:24;;;;;;;9.23;5.85;;;17.50;99.90;;;;;;5057948;28;20076;-81
2022/08/04 02:08:14;;;;;;;10.18;5.50;;;17.50;99.90;;;;;;5057349;28;20025;-82
2022/08/04 02:11:13;;;;;;;8.68;4.97;;;18.40;99.90;;;;;;5057441;28;20090;-81
2022/08/04 02:13:53;;;;;;;9.90;5.80;;;17.40;99.90;;;;;;5056955;28;20107;-81
2022/08/04 02:16:32;;;;;;;9.75;5.82;;;17.40;99.90;;;;;;5057802;28;20047;-80
2022/08/04 02:19:15;;;;;;;10.95;6.15;;;17.40;99.90;;;;;;5057927;28;20384;-81
2022/08/04 02:21:45;;;;;;;9.35;4.88;;;17.20;99.90;;;;;;5057569;28;20060;-79
2022/08/04 02:24:15;;;;;;;13.25;5.70;;;17.30;99.90;;;;;;5057742;28;20027;-80
2022/08/04 02:26:46;;;;;;;10.35;5.15;;;17.30;99.90;;;;;;5055635;28;20040;-79
2022/08/04 02:29:42;;;;;;;8.07;5.28;;;17.40;99.90;;;;;;5057416;28;20304;-81
2022/08/04 02:32:20;;;;;;;9.00;5.13;;;17.30;99.90;;;;;;5056153;28;20108;-81
2022/08/04 02:35:01;;;;;;;9.68;5.93;;;17.30;99.90;;;;;;5055702;28;20033;-81
2022/08/04 02:37:33;;;;;;;9.60;6.05;;;17.30;99.90;;;;;;5055221;28;20426;-80
2022/08/04 02:40:01;;;;;;;9.82;6.10;;;17.20;99.90;;;;;;5056992;28;20275;-80
2022/08/04 02:42:28;;;;;;;23.27;11.52;;;17.20;99.90;;;;;;5055739;28;20024;-79
2022/08/04 02:44:58;;;;;;;29.75;14.45;;;17.20;99.90;;;;;;5056902;28;20020;-80
2022/08/04 02:47:25;;;;;;;18.73;10.65;;;17.20;99.90;;;;;;5056891;28;20611;-79
2022/08/04 02:49:52;;;;;;;11.68;7.15;;;17.20;99.90;;;;;;5057380;28;20017;-80
2022/08/04 02:52:19;;;;;;;10.93;6.68;;;17.10;99.90;;;;;;5055504;28;20094;-80
2022/08/04 02:54:48;;;;;;;9.35;5.45;;;17.10;99.90;;;;;;5057082;28;20048;-80
2022/08/04 02:57:16;;;;;;;10.95;5.97;;;17.10;99.90;;;;;;5056952;28;20040;-80
2022/08/04 03:00:14;;;;;;;9.85;5.63;;;16.90;99.90;;;;;;5057092;28;20536;-83
2022/08/04 03:02:45;;;;;;;9.90;4.90;;;17.20;99.90;;;;;;5056968;28;20263;-80
2022/08/04 03:05:17;;;;;;;9.82;5.65;;;17.10;99.90;;;;;;5056962;28;20296;-81
2022/08/04 03:08:05;;;;;;;;;;;;;;;;;;;;;
2022/08/04 03:10:57;;;;;;;10.93;6.65;;;16.70;99.90;;;;;;5057030;28;20025;-79
2022/08/04 03:13:41;;;;;;;9.63;5.70;;;17.00;99.90;;;;;;5056949;28;20020;-80
2022/08/04 03:16:15;;;;;;;11.52;5.43;;;17.00;99.90;;;;;;5056954;28;20364;-81
2022/08/04 03:19:06;;;;;;;11.50;6.20;;;17.00;99.90;;;;;;5055747;28;20546;-80
2022/08/04 03:21:59;;;;;;;12.23;6.47;;;16.90;99.90;;;;;;5057779;28;20013;-79
2022/08/04 03:25:12;;;;;;;10.85;5.53;;;16.90;99.90;;;;;;5057183;28;20601;-80
2022/08/04 03:27:57;;;;;;;11.30;6.40;;;16.70;99.90;;;;;;4994595;28;20073;-83
2022/08/04 03:30:46;;;;;;;9.73;6.13;;;16.70;99.90;;;;;;4994503;28;20046;-80
2022/08/04 03:33:49;;;;;;;10.02;5.63;;;16.70;99.90;;;;;;4982393;28;20038;-78
2022/08/04 03:36:54;;;;;;;9.48;5.45;;;16.60;99.90;;;;;;4977696;28;20044;-83
2022/08/04 03:39:52;;;;;;;11.95;5.72;;;16.60;99.90;;;;;;4977596;28;20022;-83
2022/08/04 03:42:29;;;;;;;8.82;5.70;;;16.50;99.90;;;;;;4917107;29;20362;-81
2022/08/04 03:45:24;;;;;;;10.68;5.60;;;16.50;99.90;;;;;;4916630;29;20372;-79
2022/08/04 03:48:24;;;;;;;8.60;5.00;;;16.10;99.90;;;;;;4900849;29;20176;-83
2022/08/04 03:53:51;;;;;;;9.38;5.13;;;16.50;99.90;;;;;;4919896;29;20584;-80
2022/08/04 03:56:32;;;;;;;11.02;5.13;;;16.50;99.90;;;;;;4920117;29;20040;-79
2022/08/04 03:59:04;;;;;;;10.13;5.85;;;16.60;99.90;;;;;;4919882;29;20075;-80
2022/08/04 04:01:50;;;;;;;9.50;5.05;;;16.60;99.90;;;;;;4952157;28;20034;-80
2022/08/04 04:04:57;;;;;;;9.55;5.43;;;16.50;99.90;;;;;;4997145;28;20026;-80
2022/08/04 04:07:32;;;;;;;10.88;5.47;;;18.20;99.90;;;;;;4984398;28;20050;-79
2022/08/04 04:10:12;;;;;;;11.70;6.30;;;16.60;99.90;;;;;;4997028;28;20097;-79
2022/08/04 04:12:52;;;;;;;9.40;5.45;;;16.50;99.90;;;;;;4996913;28;20065;-81
2022/08/04 04:15:26;;;;;;;9.35;5.20;;;16.50;99.90;;;;;;4997309;28;20053;-82
2022/08/04 04:18:30;;;;;;;9.77;5.70;;;16.50;99.90;;;;;;5004445;28;20693;-80
2022/08/04 04:20:56;;;;;;;11.73;5.68;;;16.50;99.90;;;;;;5059805;28;20324;-81
2022/08/04 04:23:21;;;;;;;12.43;6.32;;;16.50;99.90;;;;;;5059431;28;20021;-82
2022/08/04 04:26:06;;;;;;;9.95;5.63;;;16.50;99.90;;;;;;5059278;28;20089;-83
2022/08/04 04:28:54;;;;;;;11.23;5.55;;;16.50;99.90;;;;;;5058119;28;20083;-79
2022/08/04 04:31:39;;;;;;;8.52;4.93;;;16.50;99.90;;;;;;5059568;28;20028;-83
2022/08/04 04:34:20;;;;;;;9.93;5.40;;;16.50;99.90;;;;;;5058454;28;20016;-81
2022/08/04 04:37:07;;;;;;;10.43;5.65;;;16.50;99.90;;;;;;5058045;28;20335;-81
2022/08/04 04:39:44;;;;;;;9.07;5.22;;;16.60;99.90;;;;;;5059380;28;20033;-82
2022/08/04 04:42:31;;;;;;;10.85;6.00;;;16.60;99.90;;;;;;5059834;28;20020;-81
2022/08/04 04:45:25;;;;;;;10.55;6.20;;;17.60;99.90;;;;;;5059174;28;20017;-80
2022/08/04 04:47:56;;;;;;;15.88;9.10;;;16.60;99.90;;;;;;5059063;28;20025;-80
2022/08/04 04:50:53;;;;;;;19.50;10.73;;;16.70;99.90;;;;;;5058831;28;20036;-80
2022/08/04 04:53:35;;;;;;;46.20;19.67;;;16.80;99.90;;;;;;5058919;28;20031;-82
2022/08/04 04:56:22;;;;;;;33.28;14.55;;;16.90;99.90;;;;;;5058679;28;20025;-80
2022/08/04 04:58:52;;;;;;;15.10;8.98;;;17.00;99.90;;;;;;5058858;28;20029;-80
2022/08/04 05:02:05;;;;;;;16.08;9.40;;;16.90;99.90;;;;;;5058890;28;20554;-81
2022/08/04 05:04:47;;;;;;;13.70;8.48;;;17.00;99.90;;;;;;5054562;28;20562;-79
2022/08/04 05:07:28;;;;;;;13.98;7.68;;;17.20;99.90;;;;;;5058769;28;20128;-79
2022/08/04 05:10:18;;;;;;;10.82;6.35;;;17.20;99.90;;;;;;5066867;28;20100;-79
2022/08/04 05:13:22;;;;;;;8.52;6.03;;;16.60;99.90;;;;;;5076013;28;20328;-84
2022/08/04 05:15:52;;;;;;;9.95;5.93;;;17.90;99.90;;;;;;5016922;28;20057;-81
2022/08/04 05:18:24;;;;;;;9.30;4.80;;;17.50;99.90;;;;;;5019639;28;20658;-81
2022/08/04 05:20:59;;;;;;;8.27;5.25;;;17.50;99.90;;;;;;5015547;28;20208;-80
2022/08/04 05:23:28;;;;;;;10.30;5.85;;;17.70;99.90;;;;;;5000022;28;20026;-80
2022/08/04 05:26:09;;;;;;;10.07;5.78;;;17.90;99.90;;;;;;4999917;28;20332;-81
2022/08/04 05:28:42;;;;;;;10.52;5.80;;;17.80;99.90;;;;;;5000260;28;20041;-80
2022/08/04 05:31:16;;;;;;;10.65;5.60;;;18.00;99.90;;;;;;5000762;28;20311;-80
2022/08/04 05:33:54;;;;;;;9.75;4.88;;;18.10;99.90;;;;;;4981550;28;20033;-80
2022/08/04 05:36:23;;;;;;;10.02;6.30;;;18.20;99.90;;;;;;4997567;28;20037;-81
2022/08/04 05:38:55;;;;;;;9.57;5.35;;;18.40;99.90;;;;;;4997894;28;20061;-81
2022/08/04 05:41:25;;;;;;;10.60;5.47;;;18.40;99.90;;;;;;4979837;28;20116;-80
2022/08/04 05:43:52;;;;;;;11.45;5.57;;;16.70;99.90;;;;;;4995920;28;20181;-80
2022/08/04 05:46:19;;;;;;;9.85;5.50;;;18.70;99.90;;;;;;4996029;28;20025;-80
2022/08/04 05:48:45;;;;;;;10.80;5.70;;;18.20;99.90;;;;;;4996892;28;20259;-80
2022/08/04 05:51:12;;;;;;;11.00;6.38;;;18.80;99.90;;;;;;4996887;28;20353;-80
2022/08/04 05:53:43;;;;;;;11.00;6.18;;;19.00;99.90;;;;;;5053434;28;20036;-81
2022/08/04 05:56:11;;;;;;;11.88;6.30;;;19.00;99.90;;;;;;5057869;28;20056;-80
2022/08/04 05:58:38;;;;;;;10.95;5.60;;;19.20;99.90;;;;;;5058262;28;20055;-80
2022/08/04 06:01:08;;;;;;;8.77;5.30;;;19.10;99.90;;;;;;5057975;28;20116;-79
2022/08/04 06:03:35;;;;;;;10.27;6.10;;;19.30;99.90;;;;;;5057658;28;20113;-80
2022/08/04 06:06:03;;;;;;;9.73;5.93;;;19.40;99.90;;;;;;5056522;28;20093;-80
2022/08/04 06:08:30;;;;;;;10.10;5.95;;;19.50;99.90;;;;;;5056120;28;20382;-82
2022/08/04 06:10:58;;;;;;;10.57;5.65;;;19.60;99.90;;;;;;5057686;28;20025;-82
2022/08/04 06:13:38;;;;;;;9.88;6.00;;;19.70;99.90;;;;;;5055930;28;20033;-80
2022/08/04 06:16:06;;;;;;;10.05;5.88;;;19.80;99.70;;;;;;5057523;28;20263;-80
2022/08/04 06:18:52;;;;;;;10.35;6.95;;;20.40;99.80;;;;;;5057534;28;20017;-81
2022/08/04 06:21:22;;;;;;;11.55;6.90;;;20.70;99.90;;;;;;5055751;28;20032;-82
2022/08/04 06:23:49;;;;;;;11.27;7.07;;;20.30;99.30;;;;;;5058332;28;20505;-81
2022/08/04 06:26:20;;;;;;;25.50;12.90;;;20.40;98.80;;;;;;5056749;28;20124;-80
2022/08/04 06:29:10;;;;;;;12.88;7.22;;;20.60;98.40;;;;;;5057098;28;20040;-80
2022/08/04 06:31:45;;;;;;;12.65;7.47;;;21.30;98.30;;;;;;5055728;28;20538;-81
2022/08/04 06:34:15;;;;;;;12.35;7.22;;;20.60;98.20;;;;;;5057157;28;20039;-81
2022/08/04 06:36:42;;;;;;;12.90;7.63;;;19.40;97.80;;;;;;5057720;28;20031;-81
2022/08/04 06:39:10;;;;;;;10.45;6.80;;;21.00;97.80;;;;;;5058251;28;20021;-82
2022/08/04 06:41:39;;;;;;;13.52;7.20;;;21.10;97.60;;;;;;5057414;28;20024;-83
2022/08/04 06:44:08;;;;;;;13.90;6.70;;;21.20;97.10;;;;;;5058120;28;20537;-82
2022/08/04 06:46:40;;;;;;;12.25;7.32;;;23.60;97.50;;;;;;5057497;28;20083;-82
2022/08/04 06:49:06;;;;;;;13.50;7.30;;;21.40;97.20;;;;;;5057345;28;20020;-83
2022/08/04 06:51:35;;;;;;;11.82;6.97;;;21.50;97.10;;;;;;5057239;28;20052;-82
2022/08/04 06:54:10;;;;;;;15.75;7.40;;;18.60;96.20;;;;;;5057121;28;20506;-82
2022/08/04 06:56:39;;;;;;;13.38;7.15;;;21.80;97.00;;;;;;5056602;28;20177;-82
2022/08/04 06:59:05;;;;;;;11.75;7.18;;;21.90;96.30;;;;;;5057154;28;20035;-82
2022/08/04 07:01:34;;;;;;;12.05;7.60;;;22.40;96.10;;;;;;5056697;28;20589;-79
2022/08/04 07:04:00;;;;;;;11.75;7.10;;;22.20;95.90;;;;;;5055314;28;20252;-81
2022/08/04 07:06:28;;;;;;;12.27;7.55;;;22.30;95.40;;;;;;5055015;28;20224;-79
2022/08/04 07:09:01;;;;;;;11.65;7.97;;;22.50;95.30;;;;;;5056647;28;20459;-81
2022/08/04 07:11:27;;;;;;;11.65;7.55;;;22.90;95.20;;;;;;5055255;28;20328;-84
2022/08/04 07:13:54;;;;;;;12.32;8.32;;;22.90;95.40;;;;;;5056870;28;20055;-82
2022/08/04 07:16:22;;;;;;;11.70;7.38;;;22.80;94.90;;;;;;5056745;28;20021;-82
2022/08/04 07:18:48;;;;;;;10.20;7.10;;;22.90;94.50;;;;;;5056848;28;20681;-81
2022/08/04 07:21:22;;;;;;;12.05;6.78;;;23.10;94.40;;;;;;5056525;28;20576;-80
2022/08/04 07:23:49;;;;;;;11.95;7.30;;;23.10;94.20;;;;;;5055498;28;20024;-80
2022/08/04 07:26:18;;;;;;;9.60;6.22;;;23.20;93.60;;;;;;5058778;28;20041;-80
2022/08/04 07:28:45;;;;;;;12.02;7.20;;;23.30;93.60;;;;;;5059005;28;20024;-80
2022/08/04 07:31:18;;;;;;;10.57;6.88;;;23.40;93.50;;;;;;5060381;28;20097;-80
2022/08/04 07:33:46;;;;;;;12.32;7.53;;;23.60;93.20;;;;;;5058725;28;20064;-82
2022/08/04 07:36:12;;;;;;;12.43;6.78;;;23.60;93.30;;;;;;5060259;28;20620;-81
2022/08/04 07:38:40;;;;;;;10.27;6.63;;;23.80;92.90;;;;;;5058761;28;20033;-81
2022/08/04 07:41:08;;;;;;;9.27;5.80;;;23.90;92.80;;;;;;5059605;28;20502;-81
2022/08/04 07:43:36;;;;;;;10.82;6.57;;;24.00;92.30;;;;;;5060229;28;20081;-82
2022/08/04 07:46:03;;;;;;;11.82;6.18;;;24.20;91.70;;;;;;5058494;28;20021;-83
2022/08/04 07:49:02;;;;;;;;;;;;;;;;;;;;;
2022/08/04 07:51:30;;;;;;;9.60;6.20;;;24.70;91.20;;;;;;5059915;28;20062;-83
2022/08/04 07:54:02;;;;;;;10.70;6.57;;;25.30;91.00;;;;;;5059668;28;20395;-83
2022/08/04 07:56:28;;;;;;;10.93;6.15;;;24.80;90.30;;;;;;5059676;28;20029;-80
2022/08/04 07:58:55;;;;;;;9.95;5.60;;;25.00;90.30;;;;;;5059823;28;20047;-80
2022/08/04 08:01:22;;;;;;;9.73;5.32;;;24.90;89.30;;;;;;5058004;28;20067;-80
2022/08/04 08:03:49;;;;;;;8.35;5.18;;;25.00;88.90;;;;;;5059662;28;20023;-80
2022/08/04 08:06:15;;;;;;;10.38;6.22;;;25.10;87.90;;;;;;5059442;28;20051;-80
2022/08/04 08:08:41;;;;;;;8.38;5.22;;;25.20;88.10;;;;;;5059620;28;20060;-81
2022/08/04 08:11:08;;;;;;;9.98;5.18;;;25.30;87.00;;;;;;5059564;28;20520;-80
2022/08/04 08:13:37;;;;;;;9.50;4.88;;;25.60;86.00;;;;;;5059660;28;20211;-82
2022/08/04 08:16:04;;;;;;;8.15;5.13;;;25.80;85.80;;;;;;5059839;28;20020;-80
2022/08/04 08:18:47;;;;;;;8.43;5.05;;;25.80;84.90;;;;;;5059629;28;20066;-82
2022/08/04 08:21:13;;;;;;;;;;;26.00;86.60;;;;;;5060129;28;20013;-80
2022/08/04 08:23:39;;;;;;;7.57;5.15;;;26.70;84.40;;;;;;5059591;28;19919;-80
2022/08/04 08:26:06;;;;;;;9.70;5.90;;;26.40;83.10;;;;;;5059066;28;20091;-80
2022/08/04 08:28:31;;;;;;;11.65;5.13;;;26.60;82.50;;;;;;5059302;28;20041;-80
2022/08/04 08:30:57;;;;;;;9.40;4.88;;;26.60;82.00;;;;;;5058833;28;20156;-79
2022/08/04 08:33:24;;;;;;;8.88;5.82;;;26.80;81.70;;;;;;5057729;28;20031;-82
2022/08/04 08:36:37;;;;;;;10.27;5.93;;;27.00;81.30;;;;;;5058437;28;20549;-80
2022/08/04 08:39:27;;;;;;;8.60;5.70;;;27.10;80.20;;;;;;4996350;28;20528;-81
2022/08/04 08:42:27;;;;;;;10.07;6.15;;;27.60;78.70;;;;;;4996039;28;20272;-80
2022/08/04 08:45:18;;;;;;;10.00;5.20;;;27.50;79.50;;;;;;4996386;28;20052;-80
2022/08/04 08:47:58;;;;;;;9.95;5.63;;;27.70;79.40;;;;;;4995752;28;20076;-80
2022/08/04 08:50:43;;;;;;;9.73;5.50;;;27.90;78.60;;;;;;4979641;28;20037;-81
2022/08/04 08:53:31;;;;;;;9.43;5.30;;;27.90;76.60;;;;;;4995754;28;20327;-81
2022/08/04 08:56:20;;;;;;;9.70;5.45;;;28.10;76.80;;;;;;4979281;28;20077;-80
2022/08/04 08:59:08;;;;;;;8.98;5.80;;;27.90;76.00;;;;;;4995905;28;20077;-81
2022/08/04 09:01:49;;;;;;;9.38;5.45;;;28.10;76.30;;;;;;4979582;28;20199;-81
2022/08/04 09:04:41;;;;;;;10.40;5.30;;;28.30;75.20;;;;;;4979695;28;20044;-82
2022/08/04 09:07:13;;;;;;;10.37;5.60;;;28.60;75.30;;;;;;4979303;28;20109;-80
2022/08/04 09:10:08;;;;;;;9.35;4.68;;;28.90;73.30;;;;;;4979131;28;20277;-81
2022/08/04 09:12:55;;;;;;;9.45;5.72;;;29.20;72.60;;;;;;5017483;28;20036;-79
2022/08/04 09:15:33;;;;;;;9.55;6.10;;;29.30;71.70;;;;;;5056810;28;20071;-81
2022/08/04 09:18:21;;;;;;;10.27;6.15;;;29.50;72.30;;;;;;5057184;28;20115;-82
2022/08/04 09:21:30;;;;;;;9.75;5.70;;;28.50;69.30;;;;;;5058073;28;20012;-80
2022/08/04 09:24:08;;;;;;;10.65;6.10;;;29.60;69.30;;;;;;5056649;28;20288;-81
2022/08/04 09:26:34;;;;;;;9.25;5.60;;;29.70;68.90;;;;;;5057433;28;20230;-83
2022/08/04 09:29:20;;;;;;;8.88;5.50;;;29.60;68.20;;;;;;5058166;28;20501;-80
2022/08/04 09:32:14;;;;;;;9.60;5.50;;;29.60;68.80;;;;;;5056471;28;20066;-83
2022/08/04 09:35:05;;;;;;;10.07;5.55;;;30.10;68.60;;;;;;5058365;28;20024;-81
2022/08/04 09:37:42;;;;;;;10.05;5.60;;;30.10;66.90;;;;;;5058288;28;20452;-82
2022/08/04 09:40:36;;;;;;;8.77;5.25;;;30.30;65.40;;;;;;5057850;28;20210;-80
2022/08/04 09:43:23;;;;;;;7.95;4.38;;;30.40;64.20;;;;;;5056303;28;20082;-81
2022/08/04 09:46:05;;;;;;;9.35;4.55;;;30.40;62.30;;;;;;5057530;28;20122;-81
2022/08/04 09:48:57;;;;;;;8.63;4.60;;;30.60;62.90;;;;;;5056750;28;20028;-83
2022/08/04 09:51:44;;;;;;;8.13;4.75;;;29.70;61.90;;;;;;5058159;28;20021;-81
2022/08/04 09:54:21;;;;;;;7.20;4.38;;;31.80;63.00;;;;;;5058041;28;20025;-80
2022/08/04 09:57:01;;;;;;;7.47;4.05;;;30.90;59.80;;;;;;5056432;28;20031;-82
2022/08/04 09:59:32;;;;;;;6.95;4.50;;;31.10;59.00;;;;;;5058160;28;20052;-83
2022/08/04 10:02:07;;;;;;;6.57;4.18;;;31.30;58.70;;;;;;5057469;28;20052;-82
2022/08/04 10:04:35;;;;;;;9.65;3.88;;;31.30;58.00;;;;;;5057688;28;20041;-83
2022/08/04 10:07:28;;;;;;;6.80;4.13;;;31.30;57.40;;;;;;5056289;28;20021;-82
2022/08/04 10:10:25;;;;;;;6.88;4.05;;;31.40;56.40;;;;;;5056163;28;20515;-81
2022/08/04 10:13:05;;;;;;;8.55;4.22;;;31.40;56.10;;;;;;5057143;28;20101;-81
2022/08/04 10:15:44;;;;;;;9.43;4.85;;;31.60;56.30;;;;;;5055610;28;20028;-82
2022/08/04 10:18:28;;;;;;;9.25;4.90;;;31.40;56.20;;;;;;5057012;28;20077;-84
2022/08/04 10:20:56;;;;;;;8.57;3.88;;;31.70;56.50;;;;;;5055763;28;20113;-80
2022/08/04 10:23:31;;;;;;;6.47;3.35;;;32.00;55.00;;;;;;5057420;28;20031;-80
2022/08/04 10:26:25;;;;;;;10.32;4.03;;;32.20;53.20;;;;;;5057439;28;20277;-81
2022/08/04 10:29:13;;;;;;;6.88;3.85;;;32.30;52.90;;;;;;5064347;28;20035;-80
2022/08/04 10:31:48;;;;;;;7.18;3.90;;;28.70;50.40;;;;;;5063750;28;20021;-81
2022/08/04 10:34:20;;;;;;;7.32;4.03;;;32.20;53.00;;;;;;5066290;28;20056;-82
2022/08/04 10:36:53;;;;;;;;;;;32.00;52.20;;;;;;5062158;28;20457;-81
2022/08/04 10:39:25;;;;;;;6.43;3.67;;;31.90;52.30;;;;;;5057792;28;19919;-81
2022/08/04 10:42:10;;;;;;;8.20;4.50;;;31.90;53.10;;;;;;5056528;28;20023;-80
2022/08/04 10:44:51;;;;;;;7.03;4.20;;;31.80;53.30;;;;;;5055937;28;20028;-82
2022/08/04 10:47:31;;;;;;;7.53;4.07;;;31.80;53.30;;;;;;5057385;28;20519;-81
2022/08/04 10:50:01;;;;;;;6.63;4.22;;;31.60;53.40;;;;;;5057354;28;20028;-82
2022/08/04 10:52:47;;;;;;;9.02;4.55;;;31.60;53.60;;;;;;5057639;28;20153;-81
2022/08/04 10:55:19;;;;;;;7.88;4.28;;;31.90;53.80;;;;;;5055705;28;20020;-82
2022/08/04 10:57:49;;;;;;;7.72;4.13;;;33.10;52.90;;;;;;5057279;28;20261;-80
2022/08/04 11:00:23;;;;;;;8.05;4.20;;;32.50;51.70;;;;;;5058310;28;20426;-81
2022/08/04 11:03:04;;;;;;;7.28;3.75;;;32.40;51.20;;;;;;5060781;28;20538;-81
2022/08/04 11:05:48;;;;;;;8.75;3.60;;;32.70;51.30;;;;;;5059758;28;20029;-81
2022/08/04 11:08:34;;;;;;;9.23;4.10;;;33.00;49.50;;;;;;5060720;28;20138;-82
2022/08/04 11:11:23;;;;;;;5.38;3.17;;;32.90;49.70;;;;;;5059520;28;20443;-82
2022/08/04 11:14:21;;;;;;;6.32;3.63;;;33.40;49.70;;;;;;5059769;28;20071;-80
2022/08/04 11:16:52;;;;;;;7.78;3.67;;;33.90;49.00;;;;;;5060316;28;20040;-80
2022/08/04 11:19:45;;;;;;;7.15;4.90;;;34.10;49.00;;;;;;5061362;28;20024;-79
2022/08/04 11:22:22;;;;;;;6.30;3.47;;;34.20;49.00;;;;;;5054401;28;20040;-83
2022/08/04 11:25:13;;;;;;;5.68;3.47;;;34.10;49.20;;;;;;5060374;28;20182;-82
2022/08/04 11:28:02;;;;;;;6.68;3.72;;;33.90;49.00;;;;;;5060605;28;20503;-80
2022/08/04 11:31:04;;;;;;;7.35;3.90;;;33.40;49.30;;;;;;5060200;28;20025;-80
2022/08/04 11:34:14;;;;;;;7.20;3.60;;;33.20;49.00;;;;;;4997891;28;20038;-80
2022/08/04 11:36:59;;;;;;;6.80;3.55;;;33.20;48.90;;;;;;4997654;28;20276;-80
2022/08/04 11:39:40;;;;;;;6.68;3.50;;;33.60;48.20;;;;;;4998122;28;20069;-81
2022/08/04 11:42:13;;;;;;;6.85;3.83;;;34.00;48.20;;;;;;4997346;28;20028;-79
2022/08/04 11:45:03;;;;;;;7.07;3.83;;;34.40;47.60;;;;;;4981043;28;20061;-80
2022/08/04 11:47:38;;;;;;;8.90;4.13;;;35.80;47.10;;;;;;4997048;28;20589;-80
2022/08/04 11:50:09;;;;;;;8.98;4.10;;;35.00;46.10;;;;;;4997052;28;20034;-80
2022/08/04 11:52:40;;;;;;;12.13;5.80;;;35.50;46.30;;;;;;4980825;28;20057;-80
2022/08/04 11:55:10;;;;;;;8.30;4.40;;;36.10;45.60;;;;;;4997070;28;20030;-81
2022/08/04 11:57:36;;;;;;;7.07;3.63;;;36.40;44.80;;;;;;4997464;28;20029;-81
2022/08/04 12:00:08;;;;;;;5.15;3.03;;;36.40;43.90;;;;;;4997350;28;20105;-79
2022/08/04 12:03:18;;;;;;;6.43;3.45;;;36.20;43.70;;;;;;4980549;28;20449;-80
2022/08/04 12:06:05;;;;;;;7.80;3.92;;;35.60;43.60;;;;;;4980654;28;20331;-80
2022/08/04 12:09:08;;;;;;;4.82;3.00;;;35.10;44.10;;;;;;4980157;28;20721;-81
2022/08/04 12:11:39;;;;;;;5.45;3.20;;;34.80;44.40;;;;;;5053230;28;20705;-79
2022/08/04 12:14:27;;;;;;;8.25;4.22;;;34.30;44.60;;;;;;5058541;28;20032;-81
2022/08/04 12:17:05;;;;;;;7.15;3.95;;;34.50;45.50;;;;;;5059672;28;20021;-81
2022/08/04 12:19:49;;;;;;;6.75;3.45;;;35.10;44.60;;;;;;5059870;28;20071;-81
2022/08/04 12:22:20;;;;;;;5.85;3.45;;;35.30;44.00;;;;;;5058395;28;20032;-80
2022/08/04 12:24:58;;;;;;;6.85;3.97;;;35.50;43.70;;;;;;5059709;28;20024;-81
2022/08/04 12:27:30;;;;;;;8.07;4.25;;;36.40;43.60;;;;;;5059132;28;20067;-81
2022/08/04 12:29:56;;;;;;;8.18;4.40;;;37.20;42.20;;;;;;5059572;28;20108;-81
2022/08/04 12:32:46;;;;;;;7.80;4.05;;;37.80;41.90;;;;;;5059284;28;20129;-81
2022/08/04 12:35:19;;;;;;;5.90;3.42;;;38.00;41.50;;;;;;5057540;28;20036;-80
2022/08/04 12:38:03;;;;;;;5.75;3.50;;;38.30;41.60;;;;;;5059616;28;20020;-81
2022/08/04 12:40:47;;;;;;;6.90;3.75;;;38.80;40.80;;;;;;5059314;28;20024;-81
2022/08/04 12:43:33;;;;;;;5.90;3.50;;;38.80;39.80;;;;;;5057805;28;20017;-81
2022/08/04 12:46:03;;;;;;;5.50;3.20;;;38.80;39.90;;;;;;5058926;28;20325;-81
2022/08/04 12:48:31;;;;;;;5.72;3.38;;;39.40;39.90;;;;;;5059467;28;20640;-81
2022/08/04 12:50:58;;;;;;;6.03;3.05;;;39.70;39.80;;;;;;5059215;28;20017;-81
2022/08/04 12:53:35;;;;;;;5.90;3.72;;;40.50;38.60;;;;;;5058873;28;20029;-81
2022/08/04 12:56:02;;;;;;;5.15;3.38;;;41.10;38.90;;;;;;5057514;28;20056;-81
2022/08/04 12:58:35;;;;;;;6.82;3.45;;;41.60;38.00;;;;;;5058666;28;20108;-81
2022/08/04 13:01:05;;;;;;;5.30;3.42;;;42.10;38.10;;;;;;5057257;28;20051;-80
2022/08/04 13:03:52;;;;;;;7.82;3.33;;;42.60;37.80;;;;;;5057272;28;20335;-81
2022/08/04 13:06:25;;;;;;;7.43;3.85;;;43.10;37.10;;;;;;5048259;28;20328;-80
2022/08/04 13:08:51;;;;;;;7.10;3.60;;;44.00;36.60;;;;;;5057520;28;20575;-81
2022/08/04 13:11:18;;;;;;;5.47;3.33;;;43.60;36.00;;;;;;5058659;28;20020;-79
2022/08/04 13:13:45;;;;;;;5.90;3.10;;;43.60;36.20;;;;;;5056979;28;20329;-79
2022/08/04 13:16:11;;;;;;;5.90;3.53;;;43.90;36.10;;;;;;5057059;28;20032;-82
2022/08/04 13:18:39;;;;;;;6.82;3.92;;;42.70;36.10;;;;;;5058319;28;20021;-80
2022/08/04 13:21:31;;;;;;;7.10;4.22;;;43.10;35.50;;;;;;5058479;28;20384;-80
2022/08/04 13:24:05;;;;;;;7.45;3.80;;;42.80;35.70;;;;;;5053118;28;20028;-80
2022/08/04 13:26:33;;;;;;;6.57;3.83;;;42.80;34.90;;;;;;5058102;28;20052;-81
2022/08/04 13:29:01;;;;;;;6.22;3.58;;;43.10;35.30;;;;;;5058224;28;20033;-81
2022/08/04 13:31:29;;;;;;;6.22;3.67;;;43.30;35.70;;;;;;5057920;28;20497;-80
2022/08/04 13:34:04;;;;;;;8.00;3.92;;;43.40;35.30;;;;;;5056668;28;20175;-79
2022/08/04 13:36:31;;;;;;;6.03;3.67;;;43.20;35.50;;;;;;5057881;28;20025;-80
2022/08/04 13:39:01;;;;;;;7.18;3.80;;;43.00;35.50;;;;;;5057768;28;20624;-82
2022/08/04 13:41:29;;;;;;;5.97;3.63;;;42.10;35.30;;;;;;5056676;28;20055;-80